Flight Track Log - Related Links

Times and Time Zones

All times are in EDT time to prevent confusion due to time zone crossing. See the SKW6335 flight status page for this flight to view local times or setup timezone preferences in your user account.

Time Position Orientation Groundspeed Altitude Reporting Facility
EDT Latitude Longitude Course Direction KTS MPH feet Rate Location/Type
Fri 06:02:12 PM 33.9000 -118.4667 140° Southeast 178 205 3,100  Level Southern California TRACON
Fri 06:03:08 PM 33.8614 -118.4764 192° South 194 223 4,500 1,563 Climbing Los Angeles Center
Fri 06:04:11 PM 33.8036 -118.4761 180° South 205 236 6,200 1,488 Climbing Los Angeles Center
Fri 06:05:00 PM 33.6088 -118.0672 139° Southeast  Level Estimated
Fri 06:05:13 PM 33.7483 -118.4586 165° South 219 252 7,600  Level Los Angeles Center
Fri 06:06:00 PM 33.5423 -117.9989 139° Southeast  Level FlightAware Approximate
Fri 06:06:15 PM 33.6983 -118.4156 144° Southeast 223 257 8,900  Level Los Angeles Center
Fri 06:07:00 PM 33.4757 -117.9308 140° Southeast  Level FlightAware Approximate
Fri 06:07:17 PM 33.6514 -118.3336 125° Southeast 249 287 8,900  Level Los Angeles Center
Fri 06:08:19 PM 33.6128 -118.2631 123° Southeast 254 292 8,900  Level Los Angeles Center
Fri 06:09:21 PM 33.5731 -118.1911 124° Southeast 258 297 8,900  Level Los Angeles Center
Fri 06:10:23 PM 33.5325 -118.1186 124° Southeast 261 300 8,900  Level Los Angeles Center
Fri 06:11:25 PM 33.4831 -118.0317 124° Southeast 263 303 8,900  Level Los Angeles Center
Fri 06:12:28 PM 33.4417 -117.9581 124° Southeast 266 306 8,900  Level Los Angeles Center
Fri 06:13:30 PM 33.4008 -117.8864 124° Southeast 263 303 8,900  Level Los Angeles Center
Fri 06:14:31 PM 33.3597 -117.8136 124° Southeast 264 304 8,900 49 Level Los Angeles Center
Fri 06:15:33 PM 33.3183 -117.7406 124° Southeast 265 305 9,000 48 Climbing Los Angeles Center
Fri 06:16:36 PM 33.2775 -117.6689 124° Southeast 263 303 9,000  Level Los Angeles Center
Fri 06:17:14 PM 33.2500 -117.6167 122° Southeast 264 304 9,000  Level Southern California TRACON
Fri 06:18:14 PM 33.2000 -117.5500 132° Southeast 268 308 9,000  Level Southern California TRACON
Fri 06:19:14 PM 33.1333 -117.5000 148° Southeast 270 311 9,000 -68 Level Southern California TRACON
Fri 06:19:42 PM 33.1081 -117.4781 144° Southeast 268 308 8,900 -733 Descending Los Angeles Center
Fri 06:20:44 PM 33.0428 -117.4261 146° Southeast 277 319 7,900 -871 Descending Los Angeles Center
Fri 06:21:46 PM 32.9753 -117.3742 147° Southeast 286 329 7,100 -600 Descending Los Angeles Center
Fri 06:22:14 PM 32.9333 -117.3500 154° Southeast 273 314 7,000 -68 Descending Southern California TRACON
Fri 06:23:14 PM 32.8833 -117.2833 132° Southeast 256 295 7,000  Level Southern California TRACON
Fri 06:23:51 PM 32.8617 -117.2431 123° Southeast 258 297 7,000 -364 Level Los Angeles Center
Fri 06:24:53 PM 32.8231 -117.1742 124° Southeast 253 291 6,400 -919 Descending Los Angeles Center
Fri 06:25:55 PM 32.7864 -117.1075 123° Southeast 235 270 5,100 -1,024 Descending Los Angeles Center
Fri 06:26:15 PM 32.7667 -117.0833 134° Southeast 200 230 5,000 -525 Descending Southern California TRACON
Fri 06:27:15 PM 32.7333 -117.0500 140° Southeast 190 219 4,400 -1,200 Descending Southern California TRACON
Fri 06:28:15 PM 32.7167 -117.0833 239° Southwest 155 178 2,600 -1,600 Descending Southern California TRACON
Fri 06:29:15 PM 32.7167 -117.1167 270° West 132 152 1,200 -1,400 Descending Southern California TRACON

Login

Don't have an account? Register now (free) for customized features, flight alerts, and more!